Terminal Aerodrome Forecast
Issued by NWS

Home | Current Version | Previous Version | Text Only | Print | Product List | Glossary Off
Versions: 1 2 3 4 5 6 7 8 9 10 11 12 13 14 15 16 17 18 19 20

000
FTUS43 KGRB 032300
TAFCWA
TAF
KCWA 032321Z 0400/0424 21010G18KT P6SM SCT050 BKN090
     FM040300 30005KT 6SM -SHRA SCT040 BKN060
      TEMPO 0403/0405 33025G35KT 3SM TSRA BKN040CB
     FM040700 33005KT P6SM SCT060 BKN100
     FM041500 01007KT P6SM SCT250
      AMD LTD TO CLD VIS AND WIND 0403/0411=

USA.gov is the U.S. government's official web portal to all federal, state and local government web resources and services.